createdAt,value
2023-03-18T00:00:32.737Z,7.43
2023-03-18T00:03:00.434Z,7.35
2023-03-18T00:05:27.768Z,6.50
2023-03-18T00:07:54.965Z,6.53
2023-03-18T00:10:22.171Z,6.30
2023-03-18T00:12:49.759Z,6.95
2023-03-18T00:15:18.209Z,6.40
2023-03-18T00:17:46.705Z,5.90
2023-03-18T00:20:16.997Z,6.05
2023-03-18T00:22:45.366Z,7.55
2023-03-18T00:25:14.014Z,6.45
2023-03-18T00:27:41.706Z,6.13
2023-03-18T00:30:09.893Z,6.70
2023-03-18T00:32:38.711Z,6.18
2023-03-18T00:35:06.459Z,6.70
2023-03-18T00:37:35.660Z,6.30
2023-03-18T00:40:10.213Z,6.13
2023-03-18T00:42:42.607Z,6.00
2023-03-18T00:45:11.818Z,6.63
2023-03-18T00:47:39.696Z,5.67
2023-03-18T00:50:08.476Z,6.32
2023-03-18T00:52:37.310Z,6.33
2023-03-18T00:55:06.789Z,6.43
2023-03-18T00:57:35.362Z,7.20
2023-03-18T01:00:07.140Z,6.40
2023-03-18T01:02:34.806Z,6.95
2023-03-18T01:05:03.797Z,6.47
2023-03-18T01:07:31.174Z,6.25
2023-03-18T01:09:58.633Z,6.67
2023-03-18T01:12:25.865Z,7.13
2023-03-18T01:14:53.660Z,5.13
2023-03-18T01:17:21.062Z,6.95
2023-03-18T01:19:48.720Z,7.35
2023-03-18T01:22:16.342Z,7.30
2023-03-18T01:24:47.481Z,6.10
2023-03-18T01:27:15.868Z,7.10
2023-03-18T01:29:46.431Z,6.22
2023-03-18T01:32:18.650Z,6.27
2023-03-18T01:34:46.087Z,7.43
2023-03-18T01:37:13.699Z,7.37
2023-03-18T01:39:43.649Z,7.22
2023-03-18T01:42:22.067Z,6.23
2023-03-18T01:44:49.449Z,7.00
2023-03-18T01:47:17.365Z,6.53
2023-03-18T01:49:52.295Z,6.85
2023-03-18T01:52:24.726Z,7.60
2023-03-18T01:54:57.936Z,5.95
2023-03-18T01:57:26.083Z,8.23
2023-03-18T01:59:55.170Z,6.23
2023-03-18T02:02:24.087Z,7.10
2023-03-18T02:04:53.752Z,7.10
2023-03-18T02:07:27.878Z,6.67
2023-03-18T02:09:59.786Z,6.57
2023-03-18T02:12:36.619Z,6.93
2023-03-18T02:15:09.058Z,6.57
2023-03-18T02:17:41.392Z,6.80
2023-03-18T02:20:32.202Z,6.87
2023-03-18T02:23:22.764Z,6.37
2023-03-18T02:25:57.262Z,7.03
2023-03-18T02:28:29.746Z,6.50
2023-03-18T02:31:01.459Z,6.65
2023-03-18T02:33:34.648Z,6.83
2023-03-18T02:36:10.921Z,7.00
2023-03-18T02:38:45.415Z,7.77
2023-03-18T02:41:20.908Z,6.77
2023-03-18T02:43:49.548Z,6.80
2023-03-18T02:46:47.526Z,6.93
2023-03-18T02:49:15.571Z,6.90
2023-03-18T02:51:42.867Z,5.87
2023-03-18T02:54:15.879Z,6.87
2023-03-18T02:56:43.800Z,7.63
2023-03-18T02:59:13.048Z,7.17
2023-03-18T03:01:42.862Z,5.87
2023-03-18T03:04:12.235Z,6.50
2023-03-18T03:06:40.495Z,7.17
2023-03-18T03:09:10.007Z,7.77
2023-03-18T03:11:37.575Z,6.60
2023-03-18T03:14:15.555Z,7.07
2023-03-18T03:16:44.273Z,6.13
2023-03-18T03:19:11.718Z,6.23
2023-03-18T03:21:38.981Z,6.00
2023-03-18T03:24:07.646Z,6.87
2023-03-18T03:26:35.915Z,5.60
2023-03-18T03:29:05.154Z,6.40
2023-03-18T03:31:33.200Z,7.07
2023-03-18T03:34:00.648Z,6.73
2023-03-18T03:36:27.994Z,8.20
2023-03-18T03:38:57.067Z,6.73
2023-03-18T03:41:24.375Z,5.90
2023-03-18T03:43:52.050Z,5.77
2023-03-18T03:46:19.458Z,5.83
2023-03-18T03:48:47.969Z,5.95
2023-03-18T03:51:15.466Z,6.47
2023-03-18T03:53:43.725Z,5.97
2023-03-18T03:56:11.684Z,5.93
2023-03-18T03:58:39.448Z,6.40
2023-03-18T04:01:07.063Z,6.00
2023-03-18T04:03:34.717Z,7.60
2023-03-18T04:06:06.633Z,5.70
2023-03-18T04:08:36.178Z,5.43
2023-03-18T04:11:04.511Z,6.13
2023-03-18T04:13:32.064Z,6.20
2023-03-18T04:16:00.011Z,5.60
2023-03-18T04:18:27.402Z,5.50
2023-03-18T04:20:55.040Z,6.10
2023-03-18T04:23:36.185Z,5.68
2023-03-18T04:26:05.262Z,5.40
2023-03-18T04:28:33.359Z,5.80
2023-03-18T04:31:01.605Z,5.63
2023-03-18T04:33:28.895Z,5.47
2023-03-18T04:35:58.054Z,4.70
2023-03-18T04:38:25.850Z,5.67
2023-03-18T04:40:54.046Z,5.40
2023-03-18T04:43:22.173Z,6.63
2023-03-18T04:45:51.723Z,4.80
2023-03-18T04:48:18.962Z,5.97
2023-03-18T04:50:46.948Z,6.03
2023-03-18T04:53:19.988Z,5.90
2023-03-18T04:55:50.700Z,6.73
2023-03-18T04:58:19.496Z,6.53
2023-03-18T05:00:59.505Z,5.83
2023-03-18T05:03:34.473Z,6.40
2023-03-18T05:06:02.496Z,6.27
2023-03-18T05:08:39.706Z,5.97
2023-03-18T05:11:07.649Z,6.20
2023-03-18T05:13:37.382Z,6.70
2023-03-18T05:16:06.572Z,5.80
2023-03-18T05:18:34.778Z,5.17
2023-03-18T05:21:05.113Z,6.33
2023-03-18T05:23:32.530Z,5.63
2023-03-18T05:26:00.042Z,6.43
2023-03-18T05:28:29.599Z,5.97
2023-03-18T05:31:21.332Z,5.50
2023-03-18T05:33:48.847Z,5.43
2023-03-18T05:36:16.767Z,5.83
2023-03-18T05:38:55.277Z,5.40
2023-03-18T05:41:24.224Z,6.87
2023-03-18T05:43:52.790Z,6.03
2023-03-18T05:46:20.996Z,5.93
2023-03-18T05:48:57.928Z,5.90
2023-03-18T05:51:30.522Z,6.13
2023-03-18T05:53:58.143Z,5.80
2023-03-18T05:56:31.288Z,6.83
2023-03-18T05:59:01.247Z,6.80
2023-03-18T06:01:41.260Z,6.47
2023-03-18T06:04:08.894Z,6.13
2023-03-18T06:06:40.254Z,7.63
2023-03-18T06:09:12.184Z,5.47
2023-03-18T06:11:41.906Z,6.20
2023-03-18T06:14:09.371Z,6.87
2023-03-18T06:16:37.412Z,6.17
2023-03-18T06:19:05.621Z,6.07
2023-03-18T06:21:33.100Z,6.80
2023-03-18T06:24:01.639Z,6.20
2023-03-18T06:26:29.941Z,6.43
2023-03-18T06:28:58.322Z,7.25
2023-03-18T06:31:26.296Z,6.70
2023-03-18T06:33:53.929Z,7.63
2023-03-18T06:36:23.177Z,6.15
2023-03-18T06:38:53.307Z,7.05
2023-03-18T06:41:22.623Z,7.38
2023-03-18T06:44:11.096Z,6.97
2023-03-18T06:46:38.952Z,7.00
2023-03-18T06:49:06.451Z,7.47
2023-03-18T06:51:38.660Z,6.50
2023-03-18T06:54:06.057Z,6.40
2023-03-18T06:56:37.430Z,7.00
2023-03-18T06:59:13.816Z,6.03
2023-03-18T07:01:41.431Z,7.22
2023-03-18T07:04:08.976Z,7.28
2023-03-18T07:06:37.127Z,6.95
2023-03-18T07:09:04.378Z,6.28
2023-03-18T07:11:31.641Z,6.95
2023-03-18T07:14:03.493Z,6.70
2023-03-18T07:16:34.071Z,7.60
2023-03-18T07:19:02.016Z,7.05
2023-03-18T07:21:31.049Z,7.10
2023-03-18T07:23:58.299Z,6.60
2023-03-18T07:26:26.163Z,6.88
2023-03-18T07:28:53.484Z,6.38
2023-03-18T07:31:20.764Z,6.30
2023-03-18T07:33:48.726Z,6.85
2023-03-18T07:36:16.535Z,6.07
2023-03-18T07:38:44.029Z,6.78
2023-03-18T07:41:12.539Z,7.20
2023-03-18T07:43:40.231Z,6.60
2023-03-18T07:46:07.901Z,7.75
2023-03-18T07:48:35.462Z,6.00
2023-03-18T07:51:02.917Z,7.13
2023-03-18T07:53:30.154Z,6.90
2023-03-18T07:55:57.440Z,7.07
2023-03-18T07:58:25.683Z,6.82
2023-03-18T08:00:53.302Z,6.65
2023-03-18T08:03:20.816Z,7.07
2023-03-18T08:05:48.173Z,6.13
2023-03-18T08:08:15.636Z,6.30
2023-03-18T08:10:43.212Z,6.43
2023-03-18T08:13:10.774Z,6.53
2023-03-18T08:15:38.301Z,7.00
2023-03-18T08:18:08.799Z,6.47
2023-03-18T08:20:36.643Z,6.60
2023-03-18T08:23:04.113Z,6.43
2023-03-18T08:25:32.661Z,5.80
2023-03-18T08:28:00.287Z,7.55
2023-03-18T08:30:28.788Z,6.38
2023-03-18T08:32:57.235Z,7.18
2023-03-18T08:35:25.766Z,7.00
2023-03-18T08:37:53.887Z,6.65
2023-03-18T08:40:21.269Z,6.93
2023-03-18T08:42:48.622Z,6.93
2023-03-18T08:45:16.975Z,6.93
2023-03-18T08:47:44.369Z,6.90
2023-03-18T08:50:13.582Z,6.97
2023-03-18T08:52:41.233Z,6.50
2023-03-18T08:55:09.707Z,6.22
2023-03-18T08:57:37.813Z,6.70
2023-03-18T09:00:06.423Z,6.20
2023-03-18T09:02:33.836Z,7.60
2023-03-18T09:05:01.104Z,6.72
2023-03-18T09:07:28.513Z,6.13
2023-03-18T09:09:55.884Z,5.57
2023-03-18T09:12:23.281Z,5.82
2023-03-18T09:14:50.524Z,6.57
2023-03-18T09:17:18.299Z,6.70
2023-03-18T09:19:46.124Z,6.93
2023-03-18T09:22:13.503Z,5.93
2023-03-18T09:24:41.543Z,6.22
2023-03-18T09:27:08.994Z,6.55
2023-03-18T09:29:36.546Z,6.30
2023-03-18T09:32:04.029Z,6.55
2023-03-18T09:34:31.665Z,6.30
2023-03-18T09:36:59.097Z,6.47
2023-03-18T09:39:27.163Z,6.30
2023-03-18T09:42:05.722Z,6.05
2023-03-18T09:44:36.698Z,5.53
2023-03-18T09:47:28.266Z,5.50
2023-03-18T09:50:21.692Z,6.10
2023-03-18T09:53:05.250Z,6.13
2023-03-18T09:55:41.107Z,6.13
2023-03-18T09:58:28.018Z,5.78
2023-03-18T10:01:07.213Z,6.20
2023-03-18T10:03:43.720Z,5.13
2023-03-18T10:06:21.203Z,5.55
2023-03-18T10:09:06.478Z,6.28
2023-03-18T10:11:36.401Z,6.05
2023-03-18T10:14:31.593Z,5.82
2023-03-18T10:17:19.647Z,5.03
2023-03-18T10:19:58.543Z,6.10
2023-03-18T10:22:44.491Z,5.88
2023-03-18T10:25:37.074Z,5.82
2023-03-18T10:28:18.378Z,5.75
2023-03-18T10:31:04.569Z,6.10
2023-03-18T10:33:56.798Z,5.88
2023-03-18T10:36:28.348Z,5.78
2023-03-18T10:38:57.371Z,5.65
2023-03-18T10:41:34.435Z,6.05
2023-03-18T10:44:15.547Z,5.97
2023-03-18T10:46:44.359Z,6.47
2023-03-18T10:49:27.570Z,6.72
2023-03-18T10:52:01.748Z,5.72
2023-03-18T10:54:37.172Z,5.57
2023-03-18T10:57:04.952Z,5.78
2023-03-18T10:59:34.501Z,5.65
2023-03-18T11:02:06.214Z,4.78
2023-03-18T11:04:42.349Z,4.93
2023-03-18T11:07:18.663Z,4.72
2023-03-18T11:09:47.093Z,6.00
2023-03-18T11:12:23.477Z,5.57
2023-03-18T11:14:51.542Z,5.93
2023-03-18T11:17:31.026Z,6.00
2023-03-18T11:20:13.122Z,6.38
2023-03-18T11:22:45.611Z,6.13
2023-03-18T11:25:18.917Z,5.68
2023-03-18T11:27:52.173Z,6.65
2023-03-18T11:30:33.998Z,6.63
2023-03-18T11:33:14.370Z,5.78
2023-03-18T11:36:14.387Z,5.40
2023-03-18T11:38:43.098Z,6.57
2023-03-18T11:41:27.678Z,5.43
2023-03-18T11:44:16.175Z,5.45
2023-03-18T11:46:52.248Z,5.63
2023-03-18T11:49:25.914Z,5.82
2023-03-18T11:52:03.459Z,6.03
2023-03-18T11:54:49.189Z,6.15
2023-03-18T11:57:32.256Z,6.25
2023-03-18T12:00:45.672Z,5.38
2023-03-18T12:03:31.998Z,5.35
2023-03-18T12:06:08.594Z,5.18
2023-03-18T12:09:06.637Z,4.30
2023-03-18T12:11:59.331Z,4.80
2023-03-18T12:14:44.618Z,4.63
2023-03-18T12:17:30.502Z,4.00
2023-03-18T12:20:21.593Z,4.57
2023-03-18T12:23:39.280Z,4.07
2023-03-18T12:26:31.035Z,5.28
2023-03-18T12:29:28.455Z,5.55
2023-03-18T12:32:33.892Z,4.75
2023-03-18T12:35:25.998Z,5.88
2023-03-18T12:38:14.286Z,4.38
2023-03-18T12:40:44.305Z,5.07
2023-03-18T12:43:43.734Z,4.90
2023-03-18T12:46:31.841Z,4.70
2023-03-18T12:49:22.274Z,5.45
2023-03-18T12:52:11.002Z,4.70
2023-03-18T12:54:53.895Z,4.65
2023-03-18T12:57:55.010Z,4.13
2023-03-18T13:01:07.130Z,3.67
2023-03-18T13:03:40.876Z,3.33
2023-03-18T13:06:27.559Z,4.07
2023-03-18T13:09:13.381Z,3.72
2023-03-18T13:11:56.568Z,3.55
2023-03-18T13:14:46.243Z,3.67
2023-03-18T13:17:23.448Z,4.07
2023-03-18T13:19:51.108Z,3.20
2023-03-18T13:22:33.771Z,4.05
2023-03-18T13:25:13.684Z,4.18
2023-03-18T13:28:05.540Z,3.67
2023-03-18T13:30:51.585Z,3.28
2023-03-18T13:33:27.115Z,3.47
2023-03-18T13:36:06.586Z,4.00
2023-03-18T13:39:08.431Z,4.35
2023-03-18T13:42:02.138Z,3.67
2023-03-18T13:44:45.204Z,3.45
2023-03-18T13:47:18.759Z,4.03
2023-03-18T13:49:47.318Z,4.07
2023-03-18T13:52:42.761Z,3.72
2023-03-18T13:55:42.746Z,3.50
2023-03-18T13:58:19.260Z,3.78
2023-03-18T14:01:25.393Z,3.97
2023-03-18T14:03:55.516Z,4.10
2023-03-18T14:06:39.353Z,3.92
2023-03-18T14:09:23.353Z,3.55
2023-03-18T14:11:52.716Z,3.08
2023-03-18T14:15:24.413Z,4.35
2023-03-18T14:17:58.622Z,3.70
2023-03-18T14:20:36.845Z,2.75
2023-03-18T14:23:23.006Z,3.72
2023-03-18T14:25:59.363Z,3.35
2023-03-18T14:28:26.847Z,2.67
2023-03-18T14:31:14.687Z,3.22
2023-03-18T14:34:02.789Z,2.95
2023-03-18T14:36:55.449Z,3.53
2023-03-18T14:39:46.422Z,3.55
2023-03-18T14:42:27.178Z,2.88
2023-03-18T14:45:05.115Z,2.50
2023-03-18T14:47:44.369Z,3.17
2023-03-18T14:50:24.414Z,2.60
2023-03-18T14:53:15.168Z,3.80
2023-03-18T14:55:43.762Z,2.63
2023-03-18T14:58:21.264Z,3.03
2023-03-18T15:01:10.803Z,3.45
2023-03-18T15:03:42.368Z,3.42
2023-03-18T15:06:19.273Z,2.72
2023-03-18T15:08:56.652Z,3.53
2023-03-18T15:11:24.596Z,3.22
2023-03-18T15:13:54.807Z,3.13
2023-03-18T15:16:24.097Z,2.97
2023-03-18T15:18:53.821Z,2.92
2023-03-18T15:21:28.912Z,2.97
2023-03-18T15:24:01.201Z,3.00
2023-03-18T15:26:35.098Z,3.50
2023-03-18T15:29:26.246Z,3.00
2023-03-18T15:31:54.685Z,2.92
2023-03-18T15:34:27.706Z,2.78
2023-03-18T15:36:57.365Z,2.88
2023-03-18T15:39:27.483Z,2.60
2023-03-18T15:41:57.051Z,2.50
2023-03-18T15:44:29.787Z,2.63
2023-03-18T15:47:32.257Z,2.90
2023-03-18T15:50:09.459Z,2.83
2023-03-18T15:52:42.838Z,3.30
2023-03-18T15:55:47.466Z,3.25
2023-03-18T15:58:35.170Z,2.45
2023-03-18T16:01:02.719Z,2.88
2023-03-18T16:03:33.689Z,2.97
2023-03-18T16:06:02.102Z,2.58
2023-03-18T16:08:30.523Z,2.03
2023-03-18T16:11:02.055Z,2.47
2023-03-18T16:13:34.966Z,2.60
2023-03-18T16:16:03.525Z,2.85
2023-03-18T16:18:32.500Z,2.88
2023-03-18T16:21:00.471Z,2.47
2023-03-18T16:23:27.664Z,2.53
2023-03-18T16:25:56.152Z,2.10
2023-03-18T16:28:25.953Z,2.58
2023-03-18T16:30:55.721Z,2.50
2023-03-18T16:33:23.748Z,2.90
2023-03-18T16:35:59.189Z,3.45
2023-03-18T16:38:28.271Z,3.10
2023-03-18T16:40:57.322Z,2.78
2023-03-18T16:43:27.961Z,3.00
2023-03-18T16:46:05.978Z,2.33
2023-03-18T16:48:33.719Z,2.08
2023-03-18T16:51:02.878Z,2.72
2023-03-18T16:53:31.674Z,3.13
2023-03-18T16:56:16.388Z,1.85
2023-03-18T16:58:44.511Z,2.55
2023-03-18T17:01:16.477Z,1.92
2023-03-18T17:03:44.229Z,2.30
2023-03-18T17:06:13.214Z,2.20
2023-03-18T17:08:40.987Z,2.15
2023-03-18T17:11:15.517Z,1.92
2023-03-18T17:13:42.942Z,2.30
2023-03-18T17:16:18.054Z,2.42
2023-03-18T17:18:45.735Z,2.65
2023-03-18T17:21:13.318Z,2.92
2023-03-18T17:23:41.619Z,3.30
2023-03-18T17:26:14.781Z,3.88
2023-03-18T17:28:45.279Z,3.03
2023-03-18T17:31:13.655Z,3.25
2023-03-18T17:33:41.656Z,2.42
2023-03-18T17:36:09.473Z,2.00
2023-03-18T17:38:37.200Z,2.15
2023-03-18T17:41:12.435Z,2.17
2023-03-18T17:43:40.153Z,2.60
2023-03-18T17:46:07.886Z,2.67
2023-03-18T17:48:37.229Z,3.40
2023-03-18T17:51:07.721Z,2.25
2023-03-18T17:53:41.768Z,2.58
2023-03-18T17:56:13.887Z,2.38
2023-03-18T17:58:44.511Z,2.60
2023-03-18T18:01:18.780Z,2.90
2023-03-18T18:03:47.652Z,2.75
2023-03-18T18:06:23.955Z,2.70
2023-03-18T18:08:51.438Z,2.90
2023-03-18T18:11:33.146Z,3.10
2023-03-18T18:14:23.494Z,3.83
2023-03-18T18:16:52.191Z,4.43
2023-03-18T18:19:20.497Z,4.05
2023-03-18T18:21:49.067Z,4.43
2023-03-18T18:24:30.757Z,4.88
2023-03-18T18:26:58.253Z,4.50
2023-03-18T18:29:28.265Z,3.72
2023-03-18T18:31:55.589Z,4.38
2023-03-18T18:34:23.167Z,3.70
2023-03-18T18:36:51.113Z,4.47
2023-03-18T18:39:19.107Z,3.90
2023-03-18T18:41:46.532Z,3.67
2023-03-18T18:44:14.209Z,4.25
2023-03-18T18:46:41.695Z,3.90
2023-03-18T18:49:22.547Z,4.63
2023-03-18T18:51:53.585Z,4.78
2023-03-18T18:54:24.690Z,5.90
2023-03-18T18:56:52.451Z,6.03
2023-03-18T18:59:26.520Z,6.57
2023-03-18T19:01:55.397Z,5.80
2023-03-18T19:04:23.733Z,5.93
2023-03-18T19:06:52.322Z,5.20
2023-03-18T19:09:25.837Z,4.97
2023-03-18T19:11:55.964Z,4.90
2023-03-18T19:14:28.463Z,4.57
2023-03-18T19:16:58.551Z,4.20
2023-03-18T19:19:31.916Z,4.45
2023-03-18T19:21:59.156Z,5.63
2023-03-18T19:24:36.912Z,4.93
2023-03-18T19:27:09.822Z,5.32
2023-03-18T19:29:37.231Z,5.57
2023-03-18T19:32:06.137Z,6.03
2023-03-18T19:34:35.181Z,7.63
2023-03-18T19:37:07.803Z,8.40
2023-03-18T19:39:35.219Z,8.60
2023-03-18T19:42:02.592Z,7.45
2023-03-18T19:44:29.897Z,7.82
2023-03-18T19:46:59.137Z,7.82
2023-03-18T19:49:33.650Z,6.75
2023-03-18T19:52:02.615Z,6.68
2023-03-18T19:54:32.257Z,7.15
2023-03-18T19:57:06.833Z,5.55
2023-03-18T19:59:39.327Z,6.68
2023-03-18T20:02:30.371Z,5.13
2023-03-18T20:05:01.031Z,5.97
2023-03-18T20:07:30.880Z,5.70
2023-03-18T20:09:58.329Z,5.25
2023-03-18T20:12:38.509Z,7.10
2023-03-18T20:15:12.527Z,6.70
2023-03-18T20:17:41.872Z,6.07
2023-03-18T20:20:17.022Z,8.13
2023-03-18T20:22:53.550Z,6.13
2023-03-18T20:25:28.446Z,6.13
2023-03-18T20:27:57.712Z,7.63
2023-03-18T20:30:37.220Z,5.65
2023-03-18T20:33:05.695Z,6.40
2023-03-18T20:35:38.863Z,6.22
2023-03-18T20:38:21.106Z,6.40
2023-03-18T20:40:48.293Z,6.30
2023-03-18T20:43:17.365Z,5.25
2023-03-18T20:45:45.416Z,5.82
2023-03-18T20:48:13.259Z,5.40
2023-03-18T20:50:41.581Z,4.90
2023-03-18T20:53:16.891Z,5.22
2023-03-18T20:55:44.633Z,4.85
2023-03-18T20:58:16.595Z,5.85
2023-03-18T21:00:45.343Z,5.50
2023-03-18T21:03:25.648Z,5.90
2023-03-18T21:05:57.808Z,5.65
2023-03-18T21:08:26.495Z,5.72
2023-03-18T21:10:55.274Z,5.63
2023-03-18T21:13:27.084Z,5.40
2023-03-18T21:15:56.004Z,4.72
2023-03-18T21:18:23.440Z,5.13
2023-03-18T21:20:50.971Z,5.10
2023-03-18T21:23:26.905Z,5.18
2023-03-18T21:25:55.483Z,5.70
2023-03-18T21:28:25.443Z,4.82
2023-03-18T21:30:57.861Z,5.30
2023-03-18T21:33:33.578Z,5.78
2023-03-18T21:36:01.612Z,5.40
2023-03-18T21:38:34.902Z,5.53
2023-03-18T21:41:02.651Z,5.03
2023-03-18T21:43:34.214Z,5.00
2023-03-18T21:46:03.059Z,5.43
2023-03-18T21:48:31.519Z,5.10
2023-03-18T21:50:59.676Z,5.22
2023-03-18T21:53:28.001Z,4.72
2023-03-18T21:55:55.643Z,5.40
2023-03-18T21:58:25.895Z,5.72
2023-03-18T22:00:58.935Z,6.18
2023-03-18T22:03:29.405Z,5.93
2023-03-18T22:05:57.466Z,5.32
2023-03-18T22:08:25.449Z,6.47
2023-03-18T22:10:53.017Z,5.28
2023-03-18T22:13:25.651Z,5.57
2023-03-18T22:15:54.623Z,6.22
2023-03-18T22:18:22.486Z,5.93
2023-03-18T22:20:51.192Z,5.60
2023-03-18T22:23:29.796Z,5.53
2023-03-18T22:25:58.164Z,6.50
2023-03-18T22:28:27.918Z,6.18
2023-03-18T22:30:55.740Z,5.35
2023-03-18T22:33:29.927Z,5.88
2023-03-18T22:35:57.633Z,6.03
2023-03-18T22:38:26.081Z,6.30
2023-03-18T22:40:56.644Z,5.93
2023-03-18T22:43:35.753Z,6.93
2023-03-18T22:46:06.937Z,5.55
2023-03-18T22:48:34.439Z,5.95
2023-03-18T22:51:03.135Z,6.72
2023-03-18T22:53:34.345Z,5.38
2023-03-18T22:56:11.246Z,6.07
2023-03-18T22:58:38.824Z,5.95
2023-03-18T23:01:06.570Z,7.57
2023-03-18T23:03:36.727Z,7.47
2023-03-18T23:06:04.201Z,6.20
2023-03-18T23:08:32.164Z,7.15
2023-03-18T23:11:01.682Z,6.95
2023-03-18T23:13:35.816Z,8.00
2023-03-18T23:16:06.003Z,6.80
2023-03-18T23:18:33.487Z,8.57
2023-03-18T23:21:01.637Z,7.88
2023-03-18T23:23:30.311Z,7.72
2023-03-18T23:25:57.834Z,8.73
2023-03-18T23:28:25.871Z,7.50
2023-03-18T23:30:53.444Z,8.10
2023-03-18T23:33:21.038Z,8.35
2023-03-18T23:35:48.902Z,7.20
2023-03-18T23:38:16.490Z,7.47
2023-03-18T23:40:44.149Z,7.90
2023-03-18T23:43:11.700Z,7.93
2023-03-18T23:45:39.689Z,7.68
2023-03-18T23:48:07.225Z,7.32
2023-03-18T23:50:34.696Z,7.53
2023-03-18T23:53:02.248Z,7.67
2023-03-18T23:55:37.178Z,9.80
2023-03-18T23:58:04.895Z,7.63
